createdAt,value
2016-11-16T00:00:54.354Z,740.52
2016-11-16T00:01:54.340Z,740.51
2016-11-16T00:02:54.319Z,740.5
2016-11-16T00:03:54.312Z,740.55
2016-11-16T00:04:54.297Z,740.58
2016-11-16T00:05:54.284Z,740.52
2016-11-16T00:06:54.263Z,740.52
2016-11-16T00:07:54.250Z,740.54
2016-11-16T00:08:54.242Z,740.5
2016-11-16T00:09:54.223Z,740.52
2016-11-16T00:10:54.216Z,740.51
2016-11-16T00:11:54.202Z,740.54
2016-11-16T00:12:54.181Z,740.5
2016-11-16T00:13:54.175Z,740.51
2016-11-16T00:14:54.162Z,740.51
2016-11-16T00:15:54.147Z,740.47
2016-11-16T00:16:54.129Z,740.52
2016-11-16T00:17:54.116Z,740.5
2016-11-16T00:18:54.103Z,740.53
2016-11-16T00:19:54.089Z,740.49
2016-11-16T00:20:54.076Z,740.53
2016-11-16T00:21:54.063Z,740.49
2016-11-16T00:22:54.048Z,740.47
2016-11-16T00:23:54.042Z,740.46
2016-11-16T00:24:54.028Z,740.46
2016-11-16T00:25:54.008Z,740.48
2016-11-16T00:26:53.995Z,740.5
2016-11-16T00:27:54.020Z,740.45
2016-11-16T00:28:53.968Z,740.45
2016-11-16T00:29:53.956Z,740.45
2016-11-16T00:30:53.949Z,740.47
2016-11-16T00:31:53.935Z,740.43
2016-11-16T00:32:53.922Z,740.45
2016-11-16T00:33:53.908Z,740.46
2016-11-16T00:34:53.896Z,740.45
2016-11-16T00:35:53.876Z,740.45
2016-11-16T00:36:53.869Z,740.46
2016-11-16T00:37:53.849Z,740.46
2016-11-16T00:38:53.835Z,740.45
2016-11-16T00:39:53.830Z,740.49
2016-11-16T00:40:53.816Z,740.49
2016-11-16T00:41:53.803Z,740.48
2016-11-16T00:42:53.784Z,740.43
2016-11-16T00:43:53.771Z,740.43
2016-11-16T00:44:53.763Z,740.37
2016-11-16T00:45:53.751Z,740.39
2016-11-16T00:46:53.731Z,740.38
2016-11-16T00:47:53.725Z,740.45
2016-11-16T00:48:53.712Z,740.42
2016-11-16T00:49:53.698Z,740.41
2016-11-16T00:50:53.680Z,740.41
2016-11-16T00:51:53.672Z,740.43
2016-11-16T00:52:53.653Z,740.43
2016-11-16T00:53:53.639Z,740.43
2016-11-16T00:54:53.628Z,740.44
2016-11-16T00:55:53.613Z,740.42
2016-11-16T00:56:53.607Z,740.41
2016-11-16T00:57:53.594Z,740.39
2016-11-16T00:58:53.575Z,740.4
2016-11-16T00:59:53.568Z,740.39
2016-11-16T01:00:53.548Z,740.37
2016-11-16T01:01:53.542Z,740.37
2016-11-16T01:02:53.523Z,740.35
2016-11-16T01:03:53.515Z,740.33
2016-11-16T01:04:53.503Z,740.33
2016-11-16T01:05:53.483Z,740.35
2016-11-16T01:06:53.476Z,740.3
2016-11-16T01:07:53.455Z,740.38
2016-11-16T01:08:53.450Z,740.35
2016-11-16T01:09:53.430Z,740.37
2016-11-16T01:10:53.415Z,740.34
2016-11-16T01:11:53.409Z,740.38
2016-11-16T01:12:53.396Z,740.36
2016-11-16T01:13:53.382Z,740.37
2016-11-16T01:14:53.363Z,740.38
2016-11-16T01:15:53.349Z,740.39
2016-11-16T01:16:53.338Z,740.37
2016-11-16T01:17:53.330Z,740.33
2016-11-16T01:18:53.311Z,740.39
2016-11-16T01:19:53.305Z,740.39
2016-11-16T01:20:53.292Z,740.35
2016-11-16T01:21:53.278Z,740.35
2016-11-16T01:22:53.259Z,740.4
2016-11-16T01:23:53.255Z,740.41
2016-11-16T01:24:53.240Z,740.43
2016-11-16T01:25:53.221Z,740.39
2016-11-16T01:26:53.208Z,740.37
2016-11-16T01:27:53.197Z,740.37
2016-11-16T01:28:53.182Z,740.38
2016-11-16T01:29:53.177Z,740.41
2016-11-16T01:30:53.165Z,740.4
2016-11-16T01:31:53.153Z,740.35
2016-11-16T01:32:53.138Z,740.35
2016-11-16T01:33:53.119Z,740.35
2016-11-16T01:34:53.115Z,740.35
2016-11-16T01:35:53.102Z,740.39
2016-11-16T01:36:53.082Z,740.37
2016-11-16T01:37:53.070Z,740.32
2016-11-16T01:38:53.058Z,740.31
2016-11-16T01:39:53.045Z,740.32
2016-11-16T01:40:53.032Z,740.32
2016-11-16T01:41:53.019Z,740.34
2016-11-16T01:42:53.014Z,740.32
2016-11-16T01:43:52.996Z,740.29
2016-11-16T01:44:52.983Z,740.29
2016-11-16T01:45:52.971Z,740.28
2016-11-16T01:46:52.956Z,740.29
2016-11-16T01:47:52.945Z,740.29
2016-11-16T01:48:52.939Z,740.36
2016-11-16T01:49:52.927Z,740.28
2016-11-16T01:50:52.919Z,740.3
2016-11-16T01:51:52.902Z,740.25
2016-11-16T01:52:52.883Z,740.29
2016-11-16T01:53:52.871Z,740.27
2016-11-16T01:54:52.858Z,740.26
2016-11-16T01:55:52.845Z,740.25
2016-11-16T01:56:52.840Z,740.25
2016-11-16T01:57:52.820Z,740.23
2016-11-16T01:58:52.808Z,740.24
2016-11-16T01:59:52.795Z,740.21
2016-11-16T02:00:52.789Z,740.18
2016-11-16T02:01:52.769Z,740.22
2016-11-16T02:02:52.763Z,740.24
2016-11-16T02:03:52.751Z,740.2
2016-11-16T02:04:52.733Z,740.18
2016-11-16T02:05:52.727Z,740.17
2016-11-16T02:06:52.708Z,740.16
2016-11-16T02:07:52.702Z,740.15
2016-11-16T02:08:52.683Z,740.17
2016-11-16T02:09:52.676Z,740.16
2016-11-16T02:10:52.657Z,740.08
2016-11-16T02:11:52.646Z,740.13
2016-11-16T02:12:52.632Z,740.11
2016-11-16T02:13:52.627Z,740.06
2016-11-16T02:14:52.614Z,740.1
2016-11-16T02:15:52.594Z,740.11
2016-11-16T02:16:52.589Z,740.11
2016-11-16T02:17:52.569Z,740.06
2016-11-16T02:18:52.564Z,740.05
2016-11-16T02:19:52.551Z,740.06
2016-11-16T02:20:52.531Z,740.05
2016-11-16T02:21:52.519Z,740.05
2016-11-16T02:22:52.515Z,739.99
2016-11-16T02:23:52.494Z,740.02
2016-11-16T02:24:52.482Z,740
2016-11-16T02:25:52.477Z,740.02
2016-11-16T02:26:52.464Z,739.97
2016-11-16T02:27:52.451Z,740.02
2016-11-16T02:28:52.433Z,740.01
2016-11-16T02:29:52.420Z,739.97
2016-11-16T02:30:52.407Z,739.96
2016-11-16T02:31:52.394Z,740
2016-11-16T02:32:52.381Z,739.92
2016-11-16T02:33:52.369Z,739.94
2016-11-16T02:34:52.355Z,739.92
2016-11-16T02:35:52.343Z,739.87
2016-11-16T02:36:52.332Z,739.85
2016-11-16T02:37:52.325Z,739.87
2016-11-16T02:38:52.313Z,739.88
2016-11-16T02:39:52.300Z,739.9
2016-11-16T02:40:52.287Z,739.89
2016-11-16T02:41:52.274Z,739.89
2016-11-16T02:42:52.254Z,739.87
2016-11-16T02:43:52.248Z,739.87
2016-11-16T02:44:52.230Z,739.83
2016-11-16T02:45:52.215Z,739.8
2016-11-16T02:46:52.209Z,739.83
2016-11-16T02:47:52.191Z,739.81
2016-11-16T02:48:52.177Z,739.79
2016-11-16T02:49:52.164Z,739.78
2016-11-16T02:50:52.152Z,739.79
2016-11-16T02:51:52.146Z,739.8
2016-11-16T02:52:52.125Z,739.74
2016-11-16T02:53:52.114Z,739.73
2016-11-16T02:54:52.101Z,739.79
2016-11-16T02:55:52.088Z,739.79
2016-11-16T02:56:52.082Z,739.76
2016-11-16T02:57:52.062Z,739.73
2016-11-16T02:58:52.051Z,739.77
2016-11-16T02:59:52.043Z,739.72
2016-11-16T03:00:52.025Z,739.74
2016-11-16T03:01:52.011Z,739.75
2016-11-16T03:02:51.998Z,739.7
2016-11-16T03:03:51.992Z,739.71
2016-11-16T03:04:51.979Z,739.69
2016-11-16T03:05:51.966Z,739.69
2016-11-16T03:06:51.946Z,739.69
2016-11-16T03:07:51.931Z,739.73
2016-11-16T03:08:51.925Z,739.73
2016-11-16T03:09:51.912Z,739.72
2016-11-16T03:10:51.891Z,739.75
2016-11-16T03:11:51.885Z,739.73
2016-11-16T03:12:51.871Z,739.76
2016-11-16T03:13:51.859Z,739.73
2016-11-16T03:14:51.837Z,739.75
2016-11-16T03:15:51.825Z,739.73
2016-11-16T03:16:51.818Z,739.73
2016-11-16T03:17:51.799Z,739.71
2016-11-16T03:18:51.791Z,739.64
2016-11-16T03:19:51.771Z,739.7
2016-11-16T03:20:51.765Z,739.69
2016-11-16T03:21:51.751Z,739.67
2016-11-16T03:22:51.730Z,739.64
2016-11-16T03:23:51.725Z,739.67
2016-11-16T03:24:51.706Z,739.71
2016-11-16T03:25:51.697Z,739.7
2016-11-16T03:26:51.684Z,739.71
2016-11-16T03:27:51.665Z,739.66
2016-11-16T03:28:51.658Z,739.65
2016-11-16T03:29:51.639Z,739.63
2016-11-16T03:30:51.625Z,739.65
2016-11-16T03:31:51.613Z,739.62
2016-11-16T03:32:51.598Z,739.64
2016-11-16T03:33:51.591Z,739.66
2016-11-16T03:34:51.571Z,739.68
2016-11-16T03:35:51.566Z,739.67
2016-11-16T03:36:51.552Z,739.66
2016-11-16T03:37:51.539Z,739.7
2016-11-16T03:38:51.520Z,739.68
2016-11-16T03:39:51.507Z,739.71
2016-11-16T03:40:51.494Z,739.69
2016-11-16T03:41:51.489Z,739.71
2016-11-16T03:42:51.476Z,739.7
2016-11-16T03:43:51.462Z,739.66
2016-11-16T03:44:51.444Z,739.7
2016-11-16T03:45:51.430Z,739.68
2016-11-16T03:46:51.425Z,739.7
2016-11-16T03:47:51.412Z,739.7
2016-11-16T03:48:51.392Z,739.65
2016-11-16T03:49:51.388Z,739.64
2016-11-16T03:50:51.368Z,739.67
2016-11-16T03:51:51.361Z,739.66
2016-11-16T03:52:51.342Z,739.68
2016-11-16T03:53:51.337Z,739.68
2016-11-16T03:54:51.315Z,739.64
2016-11-16T03:55:51.304Z,739.67
2016-11-16T03:56:51.291Z,739.7
2016-11-16T03:57:51.286Z,739.62
2016-11-16T03:58:51.266Z,739.63
2016-11-16T03:59:51.253Z,739.56
2016-11-16T04:00:51.249Z,739.58
2016-11-16T04:01:51.235Z,739.56
2016-11-16T04:02:51.223Z,739.61
2016-11-16T04:03:51.211Z,739.57
2016-11-16T04:04:51.192Z,739.57
2016-11-16T04:05:51.178Z,739.48
2016-11-16T04:06:51.167Z,739.54
2016-11-16T04:07:51.165Z,739.42
2016-11-16T04:08:51.141Z,739.47
2016-11-16T04:09:51.128Z,739.5
2016-11-16T04:10:51.122Z,739.43
2016-11-16T04:11:51.109Z,739.47
2016-11-16T04:12:51.095Z,739.51
2016-11-16T04:13:51.075Z,739.5
2016-11-16T04:14:51.061Z,739.53
2016-11-16T04:15:51.055Z,739.53
2016-11-16T04:16:51.041Z,739.54
2016-11-16T04:17:51.021Z,739.5
2016-11-16T04:18:51.008Z,739.47
2016-11-16T04:19:51.002Z,739.44
2016-11-16T04:20:50.987Z,739.39
2016-11-16T04:21:50.967Z,739.46
2016-11-16T04:22:50.955Z,739.4
2016-11-16T04:23:50.947Z,739.44
2016-11-16T04:24:50.933Z,739.37
2016-11-16T04:25:50.914Z,739.36
2016-11-16T04:26:50.899Z,739.41
2016-11-16T04:27:50.884Z,739.41
2016-11-16T04:28:50.870Z,739.41
2016-11-16T04:29:50.857Z,739.3
2016-11-16T04:30:50.845Z,739.32
2016-11-16T04:31:50.831Z,739.3
2016-11-16T04:32:50.823Z,739.34
2016-11-16T04:33:50.803Z,739.33
2016-11-16T04:34:50.795Z,739.33
2016-11-16T04:35:50.775Z,739.32
2016-11-16T04:36:50.761Z,739.36
2016-11-16T04:37:50.748Z,739.35
2016-11-16T04:38:50.739Z,739.38
2016-11-16T04:39:50.720Z,739.32
2016-11-16T04:40:50.712Z,739.34
2016-11-16T04:41:50.699Z,739.3
2016-11-16T04:42:50.684Z,739.34
2016-11-16T04:43:50.663Z,739.33
2016-11-16T04:44:50.657Z,739.33
2016-11-16T04:45:50.642Z,739.37
2016-11-16T04:46:50.629Z,739.32
2016-11-16T04:47:50.616Z,739.27
2016-11-16T04:48:50.602Z,739.29
2016-11-16T04:49:50.588Z,739.28
2016-11-16T04:50:50.567Z,739.28
2016-11-16T04:51:50.561Z,739.29
2016-11-16T04:52:50.547Z,739.24
2016-11-16T04:53:50.525Z,739.29
2016-11-16T04:54:50.519Z,739.32
2016-11-16T04:55:50.499Z,739.3
2016-11-16T04:56:50.491Z,739.28
2016-11-16T04:57:50.470Z,739.36
2016-11-16T04:58:50.463Z,739.28
2016-11-16T04:59:50.450Z,739.3
2016-11-16T05:00:50.428Z,739.26
2016-11-16T05:01:50.415Z,739.27
2016-11-16T05:02:50.409Z,739.25
2016-11-16T05:03:50.395Z,739.24
2016-11-16T05:04:50.381Z,739.27
2016-11-16T05:05:50.361Z,739.26
2016-11-16T05:06:50.348Z,739.19
2016-11-16T05:07:50.340Z,739.25
2016-11-16T05:08:50.320Z,739.21
2016-11-16T05:09:50.311Z,739.19
2016-11-16T05:10:50.295Z,739.19
2016-11-16T05:11:50.280Z,739.14
2016-11-16T05:12:50.274Z,739.18
2016-11-16T05:13:50.254Z,739.21
2016-11-16T05:14:50.248Z,739.22
2016-11-16T05:15:50.229Z,739.26
2016-11-16T05:16:50.222Z,739.22
2016-11-16T05:17:50.209Z,739.14
2016-11-16T05:18:50.195Z,739.16
2016-11-16T05:19:50.176Z,739.17
2016-11-16T05:20:50.168Z,739.2
2016-11-16T05:21:50.155Z,739.21
2016-11-16T05:22:50.141Z,739.17
2016-11-16T05:23:50.121Z,739.18
2016-11-16T05:24:50.109Z,739.2
2016-11-16T05:25:50.102Z,739.18
2016-11-16T05:26:50.080Z,739.07
2016-11-16T05:27:50.074Z,739.08
2016-11-16T05:28:50.061Z,739.11
2016-11-16T05:29:50.039Z,739.08
2016-11-16T05:30:50.034Z,739.08
2016-11-16T05:31:50.013Z,739.07
2016-11-16T05:32:50.000Z,739.08
2016-11-16T05:33:49.990Z,739
2016-11-16T05:34:49.972Z,739.08
2016-11-16T05:35:49.965Z,739.08
2016-11-16T05:36:49.951Z,738.95
2016-11-16T05:37:49.938Z,739.01
2016-11-16T05:38:49.918Z,738.99
2016-11-16T05:39:49.904Z,739.05
2016-11-16T05:40:49.895Z,739.02
2016-11-16T05:41:49.882Z,739.08
2016-11-16T05:42:49.868Z,739.11
2016-11-16T05:43:49.855Z,739.13
2016-11-16T05:44:49.833Z,739.1
2016-11-16T05:45:49.826Z,739.14
2016-11-16T05:46:49.813Z,739.13
2016-11-16T05:47:49.798Z,739.13
2016-11-16T05:48:49.785Z,739.1
2016-11-16T05:49:49.764Z,739.14
2016-11-16T05:50:49.758Z,739.15
2016-11-16T05:51:49.737Z,739.13
2016-11-16T05:52:49.722Z,739.13
2016-11-16T05:53:49.716Z,739.13
2016-11-16T05:54:49.702Z,739.13
2016-11-16T05:55:49.681Z,739.11
2016-11-16T05:56:49.669Z,739.17
2016-11-16T05:57:49.662Z,739.13
2016-11-16T05:58:49.642Z,739.16
2016-11-16T05:59:49.635Z,739.16
2016-11-16T06:00:49.616Z,739.15
2016-11-16T06:01:49.609Z,739.16
2016-11-16T06:02:49.588Z,739.07
2016-11-16T06:03:49.583Z,739.09
2016-11-16T06:04:49.569Z,739.09
2016-11-16T06:05:49.556Z,739.1
2016-11-16T06:06:49.543Z,739
2016-11-16T06:07:49.533Z,739.12
2016-11-16T06:08:49.517Z,739.13
2016-11-16T06:09:49.497Z,739.09
2016-11-16T06:10:49.490Z,738.98
2016-11-16T06:11:49.471Z,738.94
2016-11-16T06:12:49.464Z,738.98
2016-11-16T06:13:49.449Z,739.02
2016-11-16T06:14:49.428Z,739.04
2016-11-16T06:15:49.422Z,739
2016-11-16T06:16:49.409Z,739
2016-11-16T06:17:49.387Z,739.05
2016-11-16T06:18:49.373Z,739.06
2016-11-16T06:19:49.360Z,738.97
2016-11-16T06:20:49.351Z,739.01
2016-11-16T06:21:49.329Z,739.02
2016-11-16T06:22:49.316Z,739.05
2016-11-16T06:23:49.308Z,738.94
2016-11-16T06:24:49.286Z,738.96
2016-11-16T06:25:49.277Z,739.06
2016-11-16T06:26:49.257Z,739.04
2016-11-16T06:27:49.241Z,738.97
2016-11-16T06:28:49.233Z,738.98
2016-11-16T06:29:49.211Z,738.9
2016-11-16T06:30:49.203Z,738.96
2016-11-16T06:31:49.187Z,738.94
2016-11-16T06:32:49.172Z,738.93
2016-11-16T06:33:49.158Z,738.81
2016-11-16T06:34:49.136Z,738.97
2016-11-16T06:35:49.127Z,739.07
2016-11-16T06:36:49.112Z,739.05
2016-11-16T06:37:49.097Z,739.06
2016-11-16T06:38:49.075Z,739.04
2016-11-16T06:39:49.067Z,739.04
2016-11-16T06:40:49.052Z,739.08
2016-11-16T06:41:49.038Z,739.1
2016-11-16T06:42:49.017Z,739.09
2016-11-16T06:43:49.001Z,739.14
2016-11-16T06:44:48.995Z,739.12
2016-11-16T06:45:48.974Z,739.12
2016-11-16T06:46:48.960Z,739.13
2016-11-16T06:47:48.947Z,739.14
2016-11-16T06:48:48.933Z,739.11
2016-11-16T06:49:48.926Z,739.13
2016-11-16T06:50:48.905Z,739.2
2016-11-16T06:51:48.899Z,739.18
2016-11-16T06:52:48.879Z,739.2
2016-11-16T06:53:48.864Z,739.14
2016-11-16T06:54:48.854Z,739.13
2016-11-16T06:55:48.836Z,739.26
2016-11-16T06:56:48.830Z,739.2
2016-11-16T06:57:48.815Z,739.23
2016-11-16T06:58:48.801Z,739.2
2016-11-16T06:59:48.787Z,739.11
2016-11-16T07:00:48.771Z,739.24
2016-11-16T07:01:48.750Z,739.1
2016-11-16T07:02:48.742Z,739.14
2016-11-16T07:03:48.720Z,739.17
2016-11-16T07:04:48.711Z,739.28
2016-11-16T07:05:48.690Z,739.06
2016-11-16T07:06:48.674Z,739.03
2016-11-16T07:07:48.668Z,739.05
2016-11-16T07:08:48.644Z,739.05
2016-11-16T07:09:48.635Z,739.07
2016-11-16T07:10:48.620Z,739.12
2016-11-16T07:11:48.596Z,739.05
2016-11-16T07:12:48.589Z,739.1
2016-11-16T07:13:48.574Z,739.16
2016-11-16T07:14:48.559Z,738.87
2016-11-16T07:15:48.537Z,739.07
2016-11-16T07:16:48.527Z,739.13
2016-11-16T07:17:48.512Z,739.03
2016-11-16T07:18:48.491Z,739.12
2016-11-16T07:19:48.474Z,738.97
2016-11-16T07:20:48.466Z,739
2016-11-16T07:21:48.450Z,738.93
2016-11-16T07:22:48.428Z,738.98
2016-11-16T07:23:48.415Z,738.83
2016-11-16T07:24:48.403Z,738.88
2016-11-16T07:25:48.381Z,739
2016-11-16T07:26:48.372Z,738.98
2016-11-16T07:27:48.350Z,738.88
2016-11-16T07:28:48.334Z,738.89
2016-11-16T07:29:48.326Z,738.93
2016-11-16T07:30:48.309Z,738.91
2016-11-16T07:31:48.288Z,738.98
2016-11-16T07:32:48.279Z,739.03
2016-11-16T07:33:48.262Z,738.92
2016-11-16T07:34:48.247Z,739.09
2016-11-16T07:35:48.232Z,738.89
2016-11-16T07:36:48.216Z,738.85
2016-11-16T07:37:48.194Z,738.91
2016-11-16T07:38:48.184Z,739.08
2016-11-16T07:39:48.169Z,739.08
2016-11-16T07:40:48.146Z,739.12
2016-11-16T07:41:48.129Z,738.79
2016-11-16T07:42:48.115Z,739.1
2016-11-16T07:43:48.098Z,739.05
2016-11-16T07:44:48.088Z,739.04
2016-11-16T07:45:48.066Z,739.02
2016-11-16T07:46:48.049Z,738.89
2016-11-16T07:47:48.033Z,738.96
2016-11-16T07:48:48.016Z,739.07
2016-11-16T07:49:48.008Z,739.02
2016-11-16T07:50:47.992Z,739.09
2016-11-16T07:51:47.976Z,738.84
2016-11-16T07:52:47.953Z,739.04
2016-11-16T07:53:47.944Z,738.93
2016-11-16T07:54:47.927Z,738.91
2016-11-16T07:55:47.911Z,738.89
2016-11-16T07:56:47.888Z,739.01
2016-11-16T07:57:47.880Z,738.89
2016-11-16T07:58:47.856Z,738.8
2016-11-16T07:59:47.846Z,738.83
2016-11-16T08:00:47.824Z,738.85
2016-11-16T08:01:47.815Z,738.88
2016-11-16T08:02:47.791Z,738.8
2016-11-16T08:03:47.776Z,738.96
2016-11-16T08:04:47.766Z,738.77
2016-11-16T08:05:47.751Z,738.95
2016-11-16T08:06:47.734Z,738.97
2016-11-16T08:07:47.718Z,738.74
2016-11-16T08:08:47.695Z,738.93
2016-11-16T08:09:47.686Z,738.85
2016-11-16T08:10:47.663Z,738.78
2016-11-16T08:11:47.654Z,739.05
2016-11-16T08:12:47.638Z,739
2016-11-16T08:13:47.617Z,739.01
2016-11-16T08:14:47.606Z,738.95
2016-11-16T08:15:47.591Z,738.82
2016-11-16T08:16:47.575Z,738.91
2016-11-16T08:17:47.559Z,738.61
2016-11-16T08:18:47.543Z,738.78
2016-11-16T08:19:47.520Z,738.93
2016-11-16T08:20:47.512Z,738.83
2016-11-16T08:21:47.488Z,738.6
2016-11-16T08:22:47.480Z,738.68
2016-11-16T08:23:47.456Z,738.77
2016-11-16T08:24:47.442Z,738.84
2016-11-16T08:25:47.426Z,738.81
2016-11-16T08:26:47.414Z,738.94
2016-11-16T08:27:47.402Z,738.45
2016-11-16T08:28:47.385Z,738.87
2016-11-16T08:29:47.362Z,738.95
2016-11-16T08:30:47.354Z,738.95
2016-11-16T08:31:47.339Z,738.89
2016-11-16T08:32:47.322Z,738.9
2016-11-16T08:33:47.307Z,738.85
2016-11-16T08:34:47.284Z,739
2016-11-16T08:35:47.269Z,738.91
2016-11-16T08:36:47.254Z,738.81
2016-11-16T08:37:47.239Z,738.93
2016-11-16T08:38:47.230Z,738.87
2016-11-16T08:39:47.206Z,739
2016-11-16T08:40:47.199Z,739.04
2016-11-16T08:41:47.184Z,739
2016-11-16T08:42:47.161Z,738.93
2016-11-16T08:43:47.153Z,739.01
2016-11-16T08:44:47.139Z,739.01
2016-11-16T08:45:47.124Z,739.02
2016-11-16T08:46:47.101Z,738.99
2016-11-16T08:47:47.087Z,738.9
2016-11-16T08:48:47.073Z,738.92
2016-11-16T08:49:47.057Z,738.94
2016-11-16T08:50:47.049Z,738.93
2016-11-16T08:51:47.028Z,738.87
2016-11-16T08:52:47.017Z,738.92
2016-11-16T08:53:46.998Z,738.89
2016-11-16T08:54:46.982Z,738.91
2016-11-16T08:55:46.978Z,738.8
2016-11-16T08:56:46.952Z,738.83
2016-11-16T08:57:46.944Z,738.81
2016-11-16T08:58:46.928Z,738.71
2016-11-16T08:59:46.914Z,738.94
2016-11-16T09:00:46.899Z,738.76
2016-11-16T09:01:46.883Z,738.85
2016-11-16T09:02:46.868Z,738.53
2016-11-16T09:03:46.846Z,738.82
2016-11-16T09:04:46.837Z,738.91
2016-11-16T09:05:46.815Z,738.84
2016-11-16T09:06:46.806Z,738.88
2016-11-16T09:07:46.791Z,738.99
2016-11-16T09:08:46.768Z,739.04
2016-11-16T09:09:46.753Z,739.01
2016-11-16T09:10:46.744Z,738.88
2016-11-16T09:11:46.729Z,738.94
2016-11-16T09:12:46.707Z,738.61
2016-11-16T09:13:46.690Z,739.06
2016-11-16T09:14:46.682Z,738.99
2016-11-16T09:15:46.691Z,738.88
2016-11-16T09:16:46.651Z,738.89
2016-11-16T09:17:46.635Z,738.98
2016-11-16T09:18:46.620Z,739.16
2016-11-16T09:19:46.603Z,739.04
2016-11-16T09:20:46.588Z,738.81
2016-11-16T09:21:46.572Z,738.6
2016-11-16T09:22:46.557Z,738.71
2016-11-16T09:23:46.534Z,738.76
2016-11-16T09:24:46.525Z,738.86
2016-11-16T09:25:46.510Z,738.96
2016-11-16T09:26:46.488Z,738.96
2016-11-16T09:27:46.478Z,738.99
2016-11-16T09:28:46.463Z,738.98
2016-11-16T09:29:46.442Z,738.91
2016-11-16T09:30:46.425Z,739.1
2016-11-16T09:31:46.409Z,739.08
2016-11-16T09:32:46.401Z,738.97
2016-11-16T09:33:46.387Z,739.04
2016-11-16T09:34:46.363Z,738.91
2016-11-16T09:35:46.354Z,739.09
2016-11-16T09:36:46.339Z,738.89
2016-11-16T09:37:46.316Z,739.08
2016-11-16T09:38:46.307Z,739.15
2016-11-16T09:39:46.285Z,739.09
2016-11-16T09:40:46.277Z,738.97
2016-11-16T09:41:46.253Z,738.92
2016-11-16T09:42:46.238Z,738.99
2016-11-16T09:43:46.223Z,739.11
2016-11-16T09:44:46.207Z,738.93
2016-11-16T09:45:46.190Z,739.17
2016-11-16T09:46:46.175Z,738.88
2016-11-16T09:47:46.167Z,739.15
2016-11-16T09:48:46.145Z,739.04
2016-11-16T09:49:46.127Z,738.99
2016-11-16T09:50:46.119Z,739.05
2016-11-16T09:51:46.096Z,738.76
2016-11-16T09:52:46.080Z,738.84
2016-11-16T09:53:46.064Z,739
2016-11-16T09:54:46.056Z,739.06
2016-11-16T09:55:46.035Z,738.84
2016-11-16T09:56:46.018Z,738.92
2016-11-16T09:57:46.002Z,738.94
2016-11-16T09:58:45.993Z,738.98
2016-11-16T09:59:45.971Z,738.89
2016-11-16T10:00:45.962Z,739
2016-11-16T10:01:45.947Z,739.04
2016-11-16T10:02:45.931Z,738.85
2016-11-16T10:03:45.915Z,738.94
2016-11-16T10:04:45.892Z,739.02
2016-11-16T10:05:45.884Z,738.97
2016-11-16T10:06:45.869Z,738.86
2016-11-16T10:07:45.845Z,738.91
2016-11-16T10:08:45.830Z,738.83
2016-11-16T10:09:45.817Z,738.85
2016-11-16T10:10:45.799Z,738.87
2016-11-16T10:11:45.792Z,738.86
2016-11-16T10:12:45.776Z,738.96
2016-11-16T10:13:45.761Z,738.74
2016-11-16T10:14:45.745Z,738.86
2016-11-16T10:15:45.723Z,738.81
2016-11-16T10:16:45.707Z,738.89
2016-11-16T10:17:45.700Z,738.88
2016-11-16T10:18:45.684Z,738.84
2016-11-16T10:19:45.669Z,738.83
2016-11-16T10:20:45.647Z,738.76
2016-11-16T10:21:45.632Z,738.66
2016-11-16T10:22:45.616Z,738.66
2016-11-16T10:23:45.609Z,738.69
2016-11-16T10:24:45.593Z,738.77
2016-11-16T10:25:45.571Z,738.59
2016-11-16T10:26:45.563Z,738.65
2016-11-16T10:27:45.548Z,738.71
2016-11-16T10:28:45.533Z,738.71
2016-11-16T10:29:45.511Z,738.66
2016-11-16T10:30:45.498Z,738.65
2016-11-16T10:31:45.488Z,738.65
2016-11-16T10:32:45.465Z,738.63
2016-11-16T10:33:45.452Z,738.62
2016-11-16T10:34:45.436Z,738.55
2016-11-16T10:35:45.428Z,738.62
2016-11-16T10:36:45.412Z,738.57
2016-11-16T10:37:45.397Z,738.57
2016-11-16T10:38:45.383Z,738.54
2016-11-16T10:39:45.360Z,738.49
2016-11-16T10:40:45.345Z,738.54
2016-11-16T10:41:45.330Z,738.62
2016-11-16T10:42:45.314Z,738.57
2016-11-16T10:43:45.306Z,738.44
2016-11-16T10:44:45.284Z,738.42
2016-11-16T10:45:45.277Z,738.49
2016-11-16T10:46:45.255Z,738.53
2016-11-16T10:47:45.240Z,738.57
2016-11-16T10:48:45.225Z,738.51
2016-11-16T10:49:45.211Z,738.38
2016-11-16T10:50:45.202Z,738.46
2016-11-16T10:51:45.179Z,738.28
2016-11-16T10:52:45.165Z,738.4
2016-11-16T10:53:45.158Z,738.41
2016-11-16T10:54:45.136Z,738.38
2016-11-16T10:55:45.127Z,738.35
2016-11-16T10:56:45.106Z,738.4
2016-11-16T10:57:45.092Z,738.34
2016-11-16T10:58:45.075Z,738.21
2016-11-16T10:59:45.068Z,738.4
2016-11-16T11:00:45.053Z,738.36
2016-11-16T11:01:45.032Z,738.29
2016-11-16T11:02:45.016Z,738.29
2016-11-16T11:03:45.004Z,738.17
2016-11-16T11:04:44.993Z,738.17
2016-11-16T11:05:44.970Z,738.18
2016-11-16T11:06:44.957Z,738.39
2016-11-16T11:07:44.940Z,738.24
2016-11-16T11:08:44.934Z,738.29
2016-11-16T11:09:44.917Z,738.35
2016-11-16T11:10:44.896Z,738.17
2016-11-16T11:11:44.887Z,738.41
2016-11-16T11:12:44.873Z,738.04
2016-11-16T11:13:44.849Z,738.22
2016-11-16T11:14:44.842Z,738.12
2016-11-16T11:15:44.827Z,738.44
2016-11-16T11:16:44.812Z,738.08
2016-11-16T11:17:44.789Z,738.1
2016-11-16T11:18:44.782Z,738.07
2016-11-16T11:19:44.767Z,738.17
2016-11-16T11:20:44.744Z,738.11
2016-11-16T11:21:44.736Z,738.02
2016-11-16T11:22:44.721Z,738.09
2016-11-16T11:23:44.707Z,737.93
2016-11-16T11:24:44.686Z,738.11
2016-11-16T11:25:44.669Z,738.09
2016-11-16T11:26:44.661Z,738.16
2016-11-16T11:27:44.639Z,738.04
2016-11-16T11:28:44.623Z,738.04
2016-11-16T11:29:44.615Z,738.12
2016-11-16T11:30:44.593Z,738.18
2016-11-16T11:31:44.585Z,738.13
2016-11-16T11:32:44.894Z,738.13
2016-11-16T11:33:44.556Z,738.09
2016-11-16T11:34:44.534Z,738.05
2016-11-16T11:35:44.520Z,738.03
2016-11-16T11:36:44.513Z,738.09
2016-11-16T11:37:44.498Z,738.04
2016-11-16T11:38:44.483Z,737.99
2016-11-16T11:39:44.461Z,738.04
2016-11-16T11:40:44.447Z,738.02
2016-11-16T11:41:44.439Z,737.96
2016-11-16T11:42:44.418Z,737.95
2016-11-16T11:43:44.402Z,737.94
2016-11-16T11:44:44.395Z,738.01
2016-11-16T11:45:44.380Z,738.03
2016-11-16T11:46:44.366Z,737.96
2016-11-16T11:47:44.345Z,737.89
2016-11-16T11:48:44.337Z,737.9
2016-11-16T11:49:44.315Z,737.93
2016-11-16T11:50:44.308Z,738.09
2016-11-16T11:51:44.288Z,737.93
2016-11-16T11:52:44.272Z,737.96
2016-11-16T11:53:44.256Z,737.9
2016-11-16T11:54:44.242Z,737.94
2016-11-16T11:55:44.228Z,737.84
2016-11-16T11:56:44.213Z,737.87
2016-11-16T11:57:44.198Z,737.84
2016-11-16T11:58:44.191Z,737.6
2016-11-16T11:59:44.170Z,737.86
2016-11-16T12:00:44.155Z,737.93
2016-11-16T12:01:44.146Z,737.88
2016-11-16T12:02:44.125Z,737.97
2016-11-16T12:03:44.117Z,737.71
2016-11-16T12:04:44.101Z,737.75
2016-11-16T12:05:44.088Z,737.75
2016-11-16T12:06:44.065Z,737.69
2016-11-16T12:07:44.057Z,737.76
2016-11-16T12:08:44.036Z,737.86
2016-11-16T12:09:44.027Z,737.89
2016-11-16T12:10:44.007Z,737.85
2016-11-16T12:11:43.991Z,737.84
2016-11-16T12:12:43.976Z,737.81
2016-11-16T12:13:43.968Z,737.66
2016-11-16T12:14:43.953Z,737.76
2016-11-16T12:15:43.930Z,737.79
2016-11-16T12:16:43.915Z,737.92
2016-11-16T12:17:43.908Z,737.7
2016-11-16T12:18:43.892Z,737.81
2016-11-16T12:19:43.877Z,737.71
2016-11-16T12:20:43.862Z,737.6
2016-11-16T12:21:43.840Z,737.67
2016-11-16T12:22:43.825Z,737.7
2016-11-16T12:23:43.817Z,737.75
2016-11-16T12:24:43.802Z,737.68
2016-11-16T12:25:43.781Z,737.7
2016-11-16T12:26:43.775Z,737.64
2016-11-16T12:27:43.751Z,737.74
2016-11-16T12:28:43.735Z,737.77
2016-11-16T12:29:43.720Z,737.78
2016-11-16T12:30:43.704Z,737.66
2016-11-16T12:31:43.697Z,737.63